sensor_id;sensor_type;location;lat;lon;timestamp;temperature;humidity
25468;DHT22;13384;24.794;110.498;2022-08-27T00:01:14;25.60;99.90
25468;DHT22;13384;24.794;110.498;2022-08-27T00:05:15;25.70;99.90
25468;DHT22;13384;24.794;110.498;2022-08-27T00:07:45;25.80;99.90
25468;DHT22;13384;24.794;110.498;2022-08-27T00:10:19;25.80;99.90
25468;DHT22;13384;24.794;110.498;2022-08-27T00:12:49;25.80;99.90
25468;DHT22;13384;24.794;110.498;2022-08-27T00:15:19;26.00;99.90
25468;DHT22;13384;24.794;110.498;2022-08-27T00:17:48;26.00;99.90
25468;DHT22;13384;24.794;110.498;2022-08-27T00:20:23;26.00;99.90
25468;DHT22;13384;24.794;110.498;2022-08-27T00:23:19;26.10;99.90
25468;DHT22;13384;24.794;110.498;2022-08-27T00:26:05;26.20;99.90
25468;DHT22;13384;24.794;110.498;2022-08-27T00:28:39;26.30;99.90
25468;DHT22;13384;24.794;110.498;2022-08-27T00:31:11;26.30;99.90
25468;DHT22;13384;24.794;110.498;2022-08-27T00:33:58;26.30;99.90
25468;DHT22;13384;24.794;110.498;2022-08-27T00:36:43;26.40;99.90
25468;DHT22;13384;24.794;110.498;2022-08-27T00:39:29;26.50;99.90
25468;DHT22;13384;24.794;110.498;2022-08-27T00:42:01;26.50;99.90
25468;DHT22;13384;24.794;110.498;2022-08-27T00:44:45;26.60;99.90
25468;DHT22;13384;24.794;110.498;2022-08-27T00:47:31;26.60;99.90
25468;DHT22;13384;24.794;110.498;2022-08-27T00:50:10;26.60;99.90
25468;DHT22;13384;24.794;110.498;2022-08-27T00:53:15;26.70;99.90
25468;DHT22;13384;24.794;110.498;2022-08-27T00:56:14;26.70;99.90
25468;DHT22;13384;24.794;110.498;2022-08-27T00:59:01;26.70;99.90
25468;DHT22;13384;24.794;110.498;2022-08-27T01:01:50;26.70;99.90
25468;DHT22;13384;24.794;110.498;2022-08-27T01:04:58;26.80;99.90
25468;DHT22;13384;24.794;110.498;2022-08-27T01:07:47;26.90;99.90
25468;DHT22;13384;24.794;110.498;2022-08-27T01:10:33;26.90;99.90
25468;DHT22;13384;24.794;110.498;2022-08-27T01:13:19;27.00;99.90
25468;DHT22;13384;24.794;110.498;2022-08-27T01:16:14;27.00;99.90
25468;DHT22;13384;24.794;110.498;2022-08-27T01:18:47;27.10;99.90
25468;DHT22;13384;24.794;110.498;2022-08-27T01:21:58;27.10;99.90
25468;DHT22;13384;24.794;110.498;2022-08-27T01:25:17;27.30;99.90
25468;DHT22;13384;24.794;110.498;2022-08-27T01:28:00;27.30;99.90
25468;DHT22;13384;24.794;110.498;2022-08-27T01:30:45;27.40;99.90
25468;DHT22;13384;24.794;110.498;2022-08-27T01:33:32;27.40;99.90
25468;DHT22;13384;24.794;110.498;2022-08-27T01:36:16;27.40;99.90
25468;DHT22;13384;24.794;110.498;2022-08-27T01:38:59;27.40;99.90
25468;DHT22;13384;24.794;110.498;2022-08-27T01:42:36;27.40;99.90
25468;DHT22;13384;24.794;110.498;2022-08-27T01:45:31;27.50;99.90
25468;DHT22;13384;24.794;110.498;2022-08-27T01:48:05;27.60;99.90
25468;DHT22;13384;24.794;110.498;2022-08-27T01:50:39;27.60;99.90
25468;DHT22;13384;24.794;110.498;2022-08-27T01:53:16;27.80;99.90
25468;DHT22;13384;24.794;110.498;2022-08-27T01:55:49;27.90;99.90
25468;DHT22;13384;24.794;110.498;2022-08-27T01:58:26;28.00;99.90
25468;DHT22;13384;24.794;110.498;2022-08-27T02:01:04;28.10;99.90
25468;DHT22;13384;24.794;110.498;2022-08-27T02:03:37;28.20;99.90
25468;DHT22;13384;24.794;110.498;2022-08-27T02:06:11;28.20;99.90
25468;DHT22;13384;24.794;110.498;2022-08-27T02:08:42;28.30;99.90
25468;DHT22;13384;24.794;110.498;2022-08-27T02:11:27;28.40;99.90
25468;DHT22;13384;24.794;110.498;2022-08-27T02:14:11;28.50;99.90
25468;DHT22;13384;24.794;110.498;2022-08-27T02:17:01;28.70;99.90
25468;DHT22;13384;24.794;110.498;2022-08-27T02:19:45;28.70;99.90
25468;DHT22;13384;24.794;110.498;2022-08-27T02:22:28;28.70;99.90
25468;DHT22;13384;24.794;110.498;2022-08-27T02:25:17;28.80;99.90
25468;DHT22;13384;24.794;110.498;2022-08-27T02:28:03;29.00;99.90
25468;DHT22;13384;24.794;110.498;2022-08-27T02:30:47;28.90;99.90
25468;DHT22;13384;24.794;110.498;2022-08-27T02:33:51;29.00;99.90
25468;DHT22;13384;24.794;110.498;2022-08-27T02:36:47;29.00;99.90
25468;DHT22;13384;24.794;110.498;2022-08-27T02:39:31;29.10;99.90
25468;DHT22;13384;24.794;110.498;2022-08-27T02:42:16;29.20;99.90
25468;DHT22;13384;24.794;110.498;2022-08-27T02:45:02;29.00;99.90
25468;DHT22;13384;24.794;110.498;2022-08-27T02:47:34;29.20;99.90
25468;DHT22;13384;24.794;110.498;2022-08-27T02:50:41;29.30;99.90
25468;DHT22;13384;24.794;110.498;2022-08-27T02:53:28;29.60;99.90
25468;DHT22;13384;24.794;110.498;2022-08-27T02:56:35;29.70;99.90
25468;DHT22;13384;24.794;110.498;2022-08-27T02:59:22;29.80;99.90
25468;DHT22;13384;24.794;110.498;2022-08-27T03:01:53;29.70;99.90
25468;DHT22;13384;24.794;110.498;2022-08-27T03:04:24;29.90;99.90
25468;DHT22;13384;24.794;110.498;2022-08-27T03:06:57;30.10;99.90
25468;DHT22;13384;24.794;110.498;2022-08-27T03:09:44;29.90;99.90
25468;DHT22;13384;24.794;110.498;2022-08-27T03:12:15;30.10;99.90
25468;DHT22;13384;24.794;110.498;2022-08-27T03:15:21;30.20;99.90
25468;DHT22;13384;24.794;110.498;2022-08-27T03:18:07;30.40;99.90
25468;DHT22;13384;24.794;110.498;2022-08-27T03:20:54;30.50;99.90
25468;DHT22;13384;24.794;110.498;2022-08-27T03:23:41;30.30;99.90
25468;DHT22;13384;24.794;110.498;2022-08-27T03:26:56;30.30;99.90
25468;DHT22;13384;24.794;110.498;2022-08-27T03:29:43;30.10;99.90
25468;DHT22;13384;24.794;110.498;2022-08-27T03:32:27;29.90;99.90
25468;DHT22;13384;24.794;110.498;2022-08-27T03:35:12;30.00;99.90
25468;DHT22;13384;24.794;110.498;2022-08-27T03:37:59;30.10;99.90
25468;DHT22;13384;24.794;110.498;2022-08-27T03:40:47;30.40;99.90
25468;DHT22;13384;24.794;110.498;2022-08-27T03:43:21;30.60;99.90
25468;DHT22;13384;24.794;110.498;2022-08-27T03:46:07;30.60;99.90
25468;DHT22;13384;24.794;110.498;2022-08-27T03:48:52;30.60;99.90
25468;DHT22;13384;24.794;110.498;2022-08-27T03:51:37;30.80;99.90
25468;DHT22;13384;24.794;110.498;2022-08-27T03:54:28;31.10;99.90
25468;DHT22;13384;24.794;110.498;2022-08-27T03:57:36;31.30;99.90
25468;DHT22;13384;24.794;110.498;2022-08-27T04:00:09;31.50;99.90
25468;DHT22;13384;24.794;110.498;2022-08-27T04:02:44;31.50;99.90
25468;DHT22;13384;24.794;110.498;2022-08-27T04:05:28;31.10;99.90
25468;DHT22;13384;24.794;110.498;2022-08-27T04:07:59;31.00;99.90
25468;DHT22;13384;24.794;110.498;2022-08-27T04:10:31;31.20;99.90
25468;DHT22;13384;24.794;110.498;2022-08-27T04:13:15;31.60;99.90
25468;DHT22;13384;24.794;110.498;2022-08-27T04:16:01;31.90;99.90
25468;DHT22;13384;24.794;110.498;2022-08-27T04:18:39;32.00;99.90
25468;DHT22;13384;24.794;110.498;2022-08-27T04:21:13;32.60;99.90
25468;DHT22;13384;24.794;110.498;2022-08-27T04:23:59;32.80;99.90
25468;DHT22;13384;24.794;110.498;2022-08-27T04:26:43;32.60;99.90
25468;DHT22;13384;24.794;110.498;2022-08-27T04:29:29;32.00;99.90
25468;DHT22;13384;24.794;110.498;2022-08-27T04:32:14;31.90;99.90
25468;DHT22;13384;24.794;110.498;2022-08-27T04:34:59;32.40;99.90
25468;DHT22;13384;24.794;110.498;2022-08-27T04:38:09;32.90;99.90
25468;DHT22;13384;24.794;110.498;2022-08-27T04:40:53;32.70;99.90
25468;DHT22;13384;24.794;110.498;2022-08-27T04:44:04;32.50;99.90
25468;DHT22;13384;24.794;110.498;2022-08-27T04:46:55;32.70;99.90
25468;DHT22;13384;24.794;110.498;2022-08-27T04:49:59;32.60;99.90
25468;DHT22;13384;24.794;110.498;2022-08-27T04:52:45;32.40;99.90
25468;DHT22;13384;24.794;110.498;2022-08-27T04:55:29;32.50;99.90
25468;DHT22;13384;24.794;110.498;2022-08-27T04:58:13;32.30;99.90
25468;DHT22;13384;24.794;110.498;2022-08-27T05:01:02;32.40;99.90
25468;DHT22;13384;24.794;110.498;2022-08-27T05:03:33;32.40;99.90
25468;DHT22;13384;24.794;110.498;2022-08-27T05:06:06;32.40;99.90
25468;DHT22;13384;24.794;110.498;2022-08-27T05:08:51;32.30;99.90
25468;DHT22;13384;24.794;110.498;2022-08-27T05:11:26;32.20;99.90
25468;DHT22;13384;24.794;110.498;2022-08-27T05:14:03;32.10;99.90
25468;DHT22;13384;24.794;110.498;2022-08-27T05:16:35;32.00;99.90
25468;DHT22;13384;24.794;110.498;2022-08-27T05:19:08;31.80;99.90
25468;DHT22;13384;24.794;110.498;2022-08-27T05:21:52;31.70;99.90
25468;DHT22;13384;24.794;110.498;2022-08-27T05:24:24;31.80;99.90
25468;DHT22;13384;24.794;110.498;2022-08-27T05:27:08;32.00;99.90
25468;DHT22;13384;24.794;110.498;2022-08-27T05:29:57;32.20;99.90
25468;DHT22;13384;24.794;110.498;2022-08-27T05:32:53;32.30;99.90
25468;DHT22;13384;24.794;110.498;2022-08-27T05:35:26;32.20;99.90
25468;DHT22;13384;24.794;110.498;2022-08-27T05:37:58;32.20;99.90
25468;DHT22;13384;24.794;110.498;2022-08-27T05:40:48;31.90;99.90
25468;DHT22;13384;24.794;110.498;2022-08-27T05:43:19;31.90;99.90
25468;DHT22;13384;24.794;110.498;2022-08-27T05:46:06;31.80;99.90
25468;DHT22;13384;24.794;110.498;2022-08-27T05:48:56;31.90;99.90
25468;DHT22;13384;24.794;110.498;2022-08-27T05:51:50;32.10;99.90
25468;DHT22;13384;24.794;110.498;2022-08-27T05:54:39;32.20;99.90
25468;DHT22;13384;24.794;110.498;2022-08-27T05:57:38;32.10;99.90
25468;DHT22;13384;24.794;110.498;2022-08-27T06:00:49;32.10;99.90
25468;DHT22;13384;24.794;110.498;2022-08-27T06:03:48;31.80;99.90
25468;DHT22;13384;24.794;110.498;2022-08-27T06:06:23;31.80;99.90
25468;DHT22;13384;24.794;110.498;2022-08-27T06:09:17;31.90;99.90
25468;DHT22;13384;24.794;110.498;2022-08-27T06:11:51;32.00;99.90
25468;DHT22;13384;24.794;110.498;2022-08-27T06:14:46;32.10;99.90
25468;DHT22;13384;24.794;110.498;2022-08-27T06:17:33;32.10;99.90
25468;DHT22;13384;24.794;110.498;2022-08-27T06:20:05;32.10;99.90
25468;DHT22;13384;24.794;110.498;2022-08-27T06:22:52;32.30;99.90
25468;DHT22;13384;24.794;110.498;2022-08-27T06:25:39;32.70;99.90
25468;DHT22;13384;24.794;110.498;2022-08-27T06:28:28;32.60;99.90
25468;DHT22;13384;24.794;110.498;2022-08-27T06:31:21;32.50;99.90
25468;DHT22;13384;24.794;110.498;2022-08-27T06:34:32;32.50;99.90
25468;DHT22;13384;24.794;110.498;2022-08-27T06:37:01;33.00;99.90
25468;DHT22;13384;24.794;110.498;2022-08-27T06:39:33;33.40;99.90
25468;DHT22;13384;24.794;110.498;2022-08-27T06:42:23;33.60;99.90
25468;DHT22;13384;24.794;110.498;2022-08-27T06:44:56;33.40;99.90
25468;DHT22;13384;24.794;110.498;2022-08-27T06:48:07;33.40;99.90
25468;DHT22;13384;24.794;110.498;2022-08-27T06:50:40;33.40;99.90
25468;DHT22;13384;24.794;110.498;2022-08-27T06:53:29;33.30;99.90
25468;DHT22;13384;24.794;110.498;2022-08-27T06:55:58;33.20;99.40
25468;DHT22;13384;24.794;110.498;2022-08-27T06:58:33;33.30;99.50
25468;DHT22;13384;24.794;110.498;2022-08-27T07:01:20;33.60;99.90
25468;DHT22;13384;24.794;110.498;2022-08-27T07:03:54;34.00;99.70
25468;DHT22;13384;24.794;110.498;2022-08-27T07:06:29;34.10;99.20
25468;DHT22;13384;24.794;110.498;2022-08-27T07:09:16;34.00;98.20
25468;DHT22;13384;24.794;110.498;2022-08-27T07:12:07;34.30;98.10
25468;DHT22;13384;24.794;110.498;2022-08-27T07:14:38;34.70;98.00
25468;DHT22;13384;24.794;110.498;2022-08-27T07:17:11;34.70;96.60
25468;DHT22;13384;24.794;110.498;2022-08-27T07:20:04;34.70;96.90
25468;DHT22;13384;24.794;110.498;2022-08-27T07:22:39;34.90;96.90
25468;DHT22;13384;24.794;110.498;2022-08-27T07:25:27;35.10;96.80
25468;DHT22;13384;24.794;110.498;2022-08-27T07:28:24;34.60;95.50
25468;DHT22;13384;24.794;110.498;2022-08-27T07:31:12;34.50;96.60
25468;DHT22;13384;24.794;110.498;2022-08-27T07:33:43;34.40;96.00
25468;DHT22;13384;24.794;110.498;2022-08-27T07:36:29;34.30;95.30
25468;DHT22;13384;24.794;110.498;2022-08-27T07:39:18;34.40;95.30
25468;DHT22;13384;24.794;110.498;2022-08-27T07:42:02;34.50;94.70
25468;DHT22;13384;24.794;110.498;2022-08-27T07:45:04;34.70;95.90
25468;DHT22;13384;24.794;110.498;2022-08-27T07:47:49;34.70;94.20
25468;DHT22;13384;24.794;110.498;2022-08-27T07:50:21;34.70;94.20
25468;DHT22;13384;24.794;110.498;2022-08-27T07:53:06;34.80;93.80
25468;DHT22;13384;24.794;110.498;2022-08-27T07:55:50;34.60;93.90
25468;DHT22;13384;24.794;110.498;2022-08-27T07:58:34;34.50;93.90
25468;DHT22;13384;24.794;110.498;2022-08-27T08:01:40;34.90;93.70
25468;DHT22;13384;24.794;110.498;2022-08-27T08:04:27;34.80;92.60
25468;DHT22;13384;24.794;110.498;2022-08-27T08:07:11;35.00;92.50
25468;DHT22;13384;24.794;110.498;2022-08-27T08:09:56;35.10;92.40
25468;DHT22;13384;24.794;110.498;2022-08-27T08:12:59;35.00;92.20
25468;DHT22;13384;24.794;110.498;2022-08-27T08:15:48;35.10;93.00
25468;DHT22;13384;24.794;110.498;2022-08-27T08:18:39;35.30;93.00
25468;DHT22;13384;24.794;110.498;2022-08-27T08:22:29;34.90;92.20
25468;DHT22;13384;24.794;110.498;2022-08-27T08:24:59;34.60;93.00
25468;DHT22;13384;24.794;110.498;2022-08-27T08:27:29;34.40;93.00
25468;DHT22;13384;24.794;110.498;2022-08-27T08:30:01;34.10;94.00
25468;DHT22;13384;24.794;110.498;2022-08-27T08:33:08;33.90;94.30
25468;DHT22;13384;24.794;110.498;2022-08-27T08:35:51;33.70;95.10
25468;DHT22;13384;24.794;110.498;2022-08-27T08:38:44;33.50;96.30
25468;DHT22;13384;24.794;110.498;2022-08-27T08:44:33;33.70;95.80
25468;DHT22;13384;24.794;110.498;2022-08-27T08:47:51;34.00;96.00
25468;DHT22;13384;24.794;110.498;2022-08-27T08:51:45;34.20;94.80
25468;DHT22;13384;24.794;110.498;2022-08-27T08:54:51;34.30;94.60
25468;DHT22;13384;24.794;110.498;2022-08-27T09:00:43;34.00;94.50
25468;DHT22;13384;24.794;110.498;2022-08-27T09:03:28;33.70;94.60
25468;DHT22;13384;24.794;110.498;2022-08-27T09:06:13;33.30;95.00
25468;DHT22;13384;24.794;110.498;2022-08-27T09:09:15;33.20;95.20
25468;DHT22;13384;24.794;110.498;2022-08-27T09:12:30;33.50;94.90
25468;DHT22;13384;24.794;110.498;2022-08-27T09:15:36;33.80;94.50
25468;DHT22;13384;24.794;110.498;2022-08-27T09:18:20;34.20;94.50
25468;DHT22;13384;24.794;110.498;2022-08-27T09:27:40;34.40;94.40
25468;DHT22;13384;24.794;110.498;2022-08-27T09:30:53;34.40;94.10
25468;DHT22;13384;24.794;110.498;2022-08-27T09:34:03;34.30;93.60
25468;DHT22;13384;24.794;110.498;2022-08-27T09:37:06;34.40;93.80
25468;DHT22;13384;24.794;110.498;2022-08-27T09:40:18;34.40;93.50
25468;DHT22;13384;24.794;110.498;2022-08-27T09:43:05;34.20;94.10
25468;DHT22;13384;24.794;110.498;2022-08-27T09:45:53;34.00;93.40
25468;DHT22;13384;24.794;110.498;2022-08-27T09:50:34;34.10;94.50
25468;DHT22;13384;24.794;110.498;2022-08-27T09:53:03;33.90;94.80
25468;DHT22;13384;24.794;110.498;2022-08-27T09:56:07;33.60;95.10
25468;DHT22;13384;24.794;110.498;2022-08-27T10:02:00;33.60;95.50
25468;DHT22;13384;24.794;110.498;2022-08-27T10:04:39;33.40;96.20
25468;DHT22;13384;24.794;110.498;2022-08-27T10:12:56;33.00;96.70
25468;DHT22;13384;24.794;110.498;2022-08-27T10:30:55;32.10;99.90
25468;DHT22;13384;24.794;110.498;2022-08-27T10:39:37;31.70;99.90
25468;DHT22;13384;24.794;110.498;2022-08-27T10:54:26;31.10;99.90
25468;DHT22;13384;24.794;110.498;2022-08-27T11:01:26;30.90;99.90
25468;DHT22;13384;24.794;110.498;2022-08-27T11:04:04;30.80;99.90
25468;DHT22;13384;24.794;110.498;2022-08-27T11:06:40;30.70;99.90
25468;DHT22;13384;24.794;110.498;2022-08-27T11:12:32;30.70;99.90
25468;DHT22;13384;24.794;110.498;2022-08-27T11:15:36;30.50;99.90
25468;DHT22;13384;24.794;110.498;2022-08-27T11:21:28;30.20;99.90
25468;DHT22;13384;24.794;110.498;2022-08-27T11:24:42;30.10;99.90
25468;DHT22;13384;24.794;110.498;2022-08-27T11:27:32;30.10;99.90
25468;DHT22;13384;24.794;110.498;2022-08-27T11:30:34;30.00;99.90
25468;DHT22;13384;24.794;110.498;2022-08-27T11:36:40;29.80;99.90
25468;DHT22;13384;24.794;110.498;2022-08-27T11:42:49;29.80;99.90
25468;DHT22;13384;24.794;110.498;2022-08-27T11:46:04;29.60;99.90
25468;DHT22;13384;24.794;110.498;2022-08-27T11:49:00;29.50;99.90
25468;DHT22;13384;24.794;110.498;2022-08-27T11:52:05;29.40;99.90
25468;DHT22;13384;24.794;110.498;2022-08-27T11:54:47;29.40;99.90
25468;DHT22;13384;24.794;110.498;2022-08-27T11:57:34;29.40;99.90
25468;DHT22;13384;24.794;110.498;2022-08-27T12:01:34;29.40;99.90
25468;DHT22;13384;24.794;110.498;2022-08-27T12:04:33;29.30;99.90
25468;DHT22;13384;24.794;110.498;2022-08-27T12:13:03;29.10;99.90
25468;DHT22;13384;24.794;110.498;2022-08-27T12:19:32;29.00;99.90
25468;DHT22;13384;24.794;110.498;2022-08-27T12:25:05;28.90;99.90
25468;DHT22;13384;24.794;110.498;2022-08-27T12:27:36;28.90;99.90
25468;DHT22;13384;24.794;110.498;2022-08-27T12:30:21;28.80;99.90
25468;DHT22;13384;24.794;110.498;2022-08-27T12:33:54;28.80;99.90
25468;DHT22;13384;24.794;110.498;2022-08-27T12:36:26;28.90;99.90
25468;DHT22;13384;24.794;110.498;2022-08-27T12:39:17;28.80;99.90
25468;DHT22;13384;24.794;110.498;2022-08-27T12:41:50;28.60;99.90
25468;DHT22;13384;24.794;110.498;2022-08-27T12:44:42;28.50;99.90
25468;DHT22;13384;24.794;110.498;2022-08-27T12:47:27;28.50;99.90
25468;DHT22;13384;24.794;110.498;2022-08-27T12:50:24;28.50;99.90
25468;DHT22;13384;24.794;110.498;2022-08-27T13:05:40;28.40;99.90
25468;DHT22;13384;24.794;110.498;2022-08-27T13:08:35;28.30;99.90
25468;DHT22;13384;24.794;110.498;2022-08-27T13:11:32;28.30;99.90
25468;DHT22;13384;24.794;110.498;2022-08-27T13:14:13;28.40;99.90
25468;DHT22;13384;24.794;110.498;2022-08-27T13:17:07;28.50;99.90
25468;DHT22;13384;24.794;110.498;2022-08-27T13:19:58;28.30;99.90
25468;DHT22;13384;24.794;110.498;2022-08-27T13:23:05;28.20;99.90
25468;DHT22;13384;24.794;110.498;2022-08-27T13:26:06;28.30;99.90
25468;DHT22;13384;24.794;110.498;2022-08-27T13:28:39;28.30;99.90
25468;DHT22;13384;24.794;110.498;2022-08-27T13:31:46;28.30;99.90
25468;DHT22;13384;24.794;110.498;2022-08-27T13:34:22;28.30;99.90
25468;DHT22;13384;24.794;110.498;2022-08-27T13:37:06;28.30;99.90
25468;DHT22;13384;24.794;110.498;2022-08-27T13:40:08;28.20;99.90
25468;DHT22;13384;24.794;110.498;2022-08-27T13:43:37;28.20;99.90
25468;DHT22;13384;24.794;110.498;2022-08-27T13:46:17;28.20;99.90
25468;DHT22;13384;24.794;110.498;2022-08-27T13:49:03;28.20;99.90
25468;DHT22;13384;24.794;110.498;2022-08-27T13:51:37;28.20;99.90
25468;DHT22;13384;24.794;110.498;2022-08-27T13:54:10;28.20;99.90
25468;DHT22;13384;24.794;110.498;2022-08-27T13:57:45;28.10;99.90
25468;DHT22;13384;24.794;110.498;2022-08-27T14:00:38;28.10;99.90
25468;DHT22;13384;24.794;110.498;2022-08-27T14:03:54;28.10;99.90
25468;DHT22;13384;24.794;110.498;2022-08-27T14:06:48;28.10;99.90
25468;DHT22;13384;24.794;110.498;2022-08-27T14:09:48;28.10;99.90
25468;DHT22;13384;24.794;110.498;2022-08-27T14:12:40;28.00;99.90
25468;DHT22;13384;24.794;110.498;2022-08-27T14:15:49;28.10;99.90
25468;DHT22;13384;24.794;110.498;2022-08-27T14:18:35;28.10;99.90
25468;DHT22;13384;24.794;110.498;2022-08-27T14:21:26;28.00;99.90
25468;DHT22;13384;24.794;110.498;2022-08-27T14:24:10;28.00;99.90
25468;DHT22;13384;24.794;110.498;2022-08-27T14:27:07;28.10;99.90
25468;DHT22;13384;24.794;110.498;2022-08-27T14:29:43;28.00;99.90
25468;DHT22;13384;24.794;110.498;2022-08-27T14:32:33;28.00;99.90
25468;DHT22;13384;24.794;110.498;2022-08-27T14:35:19;27.90;99.90
25468;DHT22;13384;24.794;110.498;2022-08-27T14:38:15;28.00;99.90
25468;DHT22;13384;24.794;110.498;2022-08-27T14:41:04;27.90;99.90
25468;DHT22;13384;24.794;110.498;2022-08-27T14:43:36;27.90;99.90
25468;DHT22;13384;24.794;110.498;2022-08-27T14:46:28;27.80;99.90
25468;DHT22;13384;24.794;110.498;2022-08-27T14:49:05;27.80;99.90
25468;DHT22;13384;24.794;110.498;2022-08-27T14:51:53;27.80;99.90
25468;DHT22;13384;24.794;110.498;2022-08-27T14:54:44;27.80;99.90
25468;DHT22;13384;24.794;110.498;2022-08-27T14:57:16;27.80;99.90
25468;DHT22;13384;24.794;110.498;2022-08-27T15:00:06;27.80;99.90
25468;DHT22;13384;24.794;110.498;2022-08-27T15:02:52;27.70;99.90
25468;DHT22;13384;24.794;110.498;2022-08-27T15:05:26;27.50;99.90
25468;DHT22;13384;24.794;110.498;2022-08-27T15:08:02;27.40;99.90
25468;DHT22;13384;24.794;110.498;2022-08-27T15:10:58;27.40;99.90
25468;DHT22;13384;24.794;110.498;2022-08-27T15:13:43;27.30;99.90
25468;DHT22;13384;24.794;110.498;2022-08-27T15:16:39;27.30;99.90
25468;DHT22;13384;24.794;110.498;2022-08-27T15:20:09;27.30;99.90
25468;DHT22;13384;24.794;110.498;2022-08-27T15:22:55;27.30;99.90
25468;DHT22;13384;24.794;110.498;2022-08-27T15:25:44;27.40;99.90
25468;DHT22;13384;24.794;110.498;2022-08-27T15:29:39;27.40;99.90
25468;DHT22;13384;24.794;110.498;2022-08-27T15:32:31;27.40;99.90
25468;DHT22;13384;24.794;110.498;2022-08-27T15:35:24;27.40;99.90
25468;DHT22;13384;24.794;110.498;2022-08-27T15:37:55;27.40;99.90
25468;DHT22;13384;24.794;110.498;2022-08-27T15:40:31;27.30;99.90
25468;DHT22;13384;24.794;110.498;2022-08-27T15:43:24;27.30;99.90
25468;DHT22;13384;24.794;110.498;2022-08-27T15:46:14;27.30;99.90
25468;DHT22;13384;24.794;110.498;2022-08-27T15:48:58;27.30;99.90
25468;DHT22;13384;24.794;110.498;2022-08-27T15:52:21;27.20;99.90
25468;DHT22;13384;24.794;110.498;2022-08-27T15:55:34;27.20;99.90
25468;DHT22;13384;24.794;110.498;2022-08-27T15:58:39;27.30;99.90
25468;DHT22;13384;24.794;110.498;2022-08-27T16:01:42;27.30;99.90
25468;DHT22;13384;24.794;110.498;2022-08-27T16:04:52;27.30;99.90
25468;DHT22;13384;24.794;110.498;2022-08-27T16:07:36;27.30;99.90
25468;DHT22;13384;24.794;110.498;2022-08-27T16:10:21;27.20;99.90
25468;DHT22;13384;24.794;110.498;2022-08-27T16:13:08;27.20;99.90
25468;DHT22;13384;24.794;110.498;2022-08-27T16:15:53;27.10;99.90
25468;DHT22;13384;24.794;110.498;2022-08-27T16:18:41;27.20;99.90
25468;DHT22;13384;24.794;110.498;2022-08-27T16:21:46;27.00;99.90
25468;DHT22;13384;24.794;110.498;2022-08-27T16:24:38;27.10;99.90
25468;DHT22;13384;24.794;110.498;2022-08-27T16:27:14;27.10;99.90
25468;DHT22;13384;24.794;110.498;2022-08-27T16:29:45;27.10;99.90
25468;DHT22;13384;24.794;110.498;2022-08-27T16:32:50;27.10;99.90
25468;DHT22;13384;24.794;110.498;2022-08-27T16:35:25;27.10;99.90
25468;DHT22;13384;24.794;110.498;2022-08-27T16:38:12;27.10;99.90
25468;DHT22;13384;24.794;110.498;2022-08-27T16:40:58;27.10;99.90
25468;DHT22;13384;24.794;110.498;2022-08-27T16:44:03;27.10;99.90
25468;DHT22;13384;24.794;110.498;2022-08-27T16:46:51;27.10;99.90
25468;DHT22;13384;24.794;110.498;2022-08-27T16:49:35;27.00;99.90
25468;DHT22;13384;24.794;110.498;2022-08-27T16:52:25;27.10;99.90
25468;DHT22;13384;24.794;110.498;2022-08-27T16:55:09;27.10;99.90
25468;DHT22;13384;24.794;110.498;2022-08-27T16:57:58;27.00;99.90
25468;DHT22;13384;24.794;110.498;2022-08-27T17:00:48;27.00;99.90
25468;DHT22;13384;24.794;110.498;2022-08-27T17:03:17;27.00;99.90
25468;DHT22;13384;24.794;110.498;2022-08-27T17:05:48;27.00;99.90
25468;DHT22;13384;24.794;110.498;2022-08-27T17:08:21;27.00;99.90
25468;DHT22;13384;24.794;110.498;2022-08-27T17:11:19;26.70;99.90
25468;DHT22;13384;24.794;110.498;2022-08-27T17:14:12;26.80;99.90
25468;DHT22;13384;24.794;110.498;2022-08-27T17:17:00;26.90;99.90
25468;DHT22;13384;24.794;110.498;2022-08-27T17:19:45;26.80;99.90
25468;DHT22;13384;24.794;110.498;2022-08-27T17:22:18;26.90;99.90
25468;DHT22;13384;24.794;110.498;2022-08-27T17:25:08;26.80;99.90
25468;DHT22;13384;24.794;110.498;2022-08-27T17:27:52;26.70;99.90
25468;DHT22;13384;24.794;110.498;2022-08-27T17:30:28;26.80;99.90
25468;DHT22;13384;24.794;110.498;2022-08-27T17:33:01;26.90;99.90
25468;DHT22;13384;24.794;110.498;2022-08-27T17:35:33;26.80;99.90
25468;DHT22;13384;24.794;110.498;2022-08-27T17:38:05;26.60;99.90
25468;DHT22;13384;24.794;110.498;2022-08-27T17:41:25;26.70;99.90
25468;DHT22;13384;24.794;110.498;2022-08-27T17:44:27;26.70;99.90
25468;DHT22;13384;24.794;110.498;2022-08-27T17:47:17;26.80;99.90
25468;DHT22;13384;24.794;110.498;2022-08-27T17:50:06;26.70;99.90
25468;DHT22;13384;24.794;110.498;2022-08-27T17:52:52;26.70;99.90
25468;DHT22;13384;24.794;110.498;2022-08-27T17:55:36;26.80;99.90
25468;DHT22;13384;24.794;110.498;2022-08-27T17:58:29;26.60;99.90
25468;DHT22;13384;24.794;110.498;2022-08-27T18:01:24;26.70;99.90
25468;DHT22;13384;24.794;110.498;2022-08-27T18:04:08;26.60;99.90
25468;DHT22;13384;24.794;110.498;2022-08-27T18:06:52;26.60;99.90
25468;DHT22;13384;24.794;110.498;2022-08-27T18:09:35;26.60;99.90
25468;DHT22;13384;24.794;110.498;2022-08-27T18:12:43;26.60;99.90
25468;DHT22;13384;24.794;110.498;2022-08-27T18:15:43;26.60;99.90
25468;DHT22;13384;24.794;110.498;2022-08-27T18:18:27;26.60;99.90
25468;DHT22;13384;24.794;110.498;2022-08-27T18:21:12;26.60;99.90
25468;DHT22;13384;24.794;110.498;2022-08-27T18:23:58;26.50;99.90
25468;DHT22;13384;24.794;110.498;2022-08-27T18:26:31;26.40;99.90
25468;DHT22;13384;24.794;110.498;2022-08-27T18:29:16;26.40;99.90
25468;DHT22;13384;24.794;110.498;2022-08-27T18:31:49;26.40;99.90
25468;DHT22;13384;24.794;110.498;2022-08-27T18:35:39;26.50;99.90
25468;DHT22;13384;24.794;110.498;2022-08-27T18:38:11;26.40;99.90
25468;DHT22;13384;24.794;110.498;2022-08-27T18:40:46;26.50;99.90
25468;DHT22;13384;24.794;110.498;2022-08-27T18:44:40;26.40;99.90
25468;DHT22;13384;24.794;110.498;2022-08-27T18:47:25;26.30;99.90
25468;DHT22;13384;24.794;110.498;2022-08-27T18:51:14;26.40;99.90
25468;DHT22;13384;24.794;110.498;2022-08-27T18:53:46;26.30;99.90